createdAt,value
2018-11-03T00:02:30.819Z,9.16
2018-11-03T00:05:18.493Z,9.19
2018-11-03T00:07:47.874Z,9.21
2018-11-03T00:10:17.001Z,9.23
2018-11-03T00:12:46.093Z,9.22
2018-11-03T00:15:15.165Z,9.23
2018-11-03T00:17:44.205Z,9.23
2018-11-03T00:20:13.302Z,9.25
2018-11-03T00:22:42.408Z,9.27
2018-11-03T00:25:11.644Z,9.28
2018-11-03T00:27:40.682Z,9.30
2018-11-03T00:30:12.079Z,9.32
2018-11-03T00:32:41.531Z,9.33
2018-11-03T00:35:10.880Z,9.36
2018-11-03T00:37:39.974Z,9.37
2018-11-03T00:40:12.340Z,9.40
2018-11-03T00:42:41.745Z,9.39
2018-11-03T00:45:12.579Z,9.40
2018-11-03T00:47:43.186Z,9.42
2018-11-03T00:50:13.754Z,9.44
2018-11-03T00:52:43.293Z,9.46
2018-11-03T00:55:13.069Z,9.47
2018-11-03T00:57:42.643Z,9.52
2018-11-03T01:00:17.380Z,9.55
2018-11-03T01:02:47.713Z,9.59
2018-11-03T01:05:16.829Z,9.61
2018-11-03T01:07:46.331Z,9.61
2018-11-03T01:10:15.751Z,9.64
2018-11-03T01:12:45.709Z,9.68
2018-11-03T01:15:16.023Z,9.71
2018-11-03T01:17:45.254Z,9.71
2018-11-03T01:20:15.420Z,9.70
2018-11-03T01:22:44.584Z,9.67
2018-11-03T01:25:13.664Z,9.66
2018-11-03T01:27:42.757Z,9.65
2018-11-03T01:30:15.745Z,9.65
2018-11-03T01:32:44.908Z,9.65
2018-11-03T01:35:14.038Z,9.66
2018-11-03T01:37:43.100Z,9.65
2018-11-03T01:40:13.455Z,9.66
2018-11-03T01:42:42.559Z,9.68
2018-11-03T01:45:11.665Z,9.73
2018-11-03T01:47:40.793Z,9.79
2018-11-03T01:50:11.779Z,9.87
2018-11-03T01:52:41.392Z,9.95
2018-11-03T01:55:10.431Z,9.99
2018-11-03T01:57:39.655Z,10.04
2018-11-03T02:00:09.766Z,10.08
2018-11-03T02:02:39.007Z,10.12
2018-11-03T02:05:08.692Z,10.15
2018-11-03T02:07:37.776Z,10.17
2018-11-03T02:10:08.401Z,10.18
2018-11-03T02:12:37.382Z,10.17
2018-11-03T02:15:06.549Z,10.17
2018-11-03T02:17:35.657Z,10.19
2018-11-03T02:20:05.123Z,10.22
2018-11-03T02:22:34.152Z,10.20
2018-11-03T02:25:03.196Z,10.23
2018-11-03T02:27:32.267Z,10.25
2018-11-03T02:30:01.360Z,10.25
2018-11-03T02:32:30.502Z,10.27
2018-11-03T02:34:59.508Z,10.30
2018-11-03T02:37:28.625Z,10.31
2018-11-03T02:39:57.666Z,10.31
2018-11-03T02:42:26.728Z,10.30
2018-11-03T02:44:55.833Z,10.30
2018-11-03T02:47:25.814Z,10.32
2018-11-03T02:49:54.854Z,10.35
2018-11-03T02:52:23.949Z,10.35
2018-11-03T02:54:52.940Z,10.37
2018-11-03T02:57:22.078Z,10.35
2018-11-03T02:59:51.119Z,10.35
2018-11-03T03:02:20.123Z,10.36
2018-11-03T03:04:49.244Z,10.36
2018-11-03T03:07:18.319Z,10.35
2018-11-03T03:09:48.210Z,10.34
2018-11-03T03:12:17.410Z,10.33
2018-11-03T03:14:46.548Z,10.32
2018-11-03T03:17:15.689Z,10.30
2018-11-03T03:19:44.691Z,10.30
2018-11-03T03:22:13.687Z,10.29
2018-11-03T03:24:42.697Z,10.28
2018-11-03T03:27:11.777Z,10.28
2018-11-03T03:29:40.899Z,10.26
2018-11-03T03:32:09.987Z,10.25
2018-11-03T03:34:39.068Z,10.25
2018-11-03T03:37:08.174Z,10.30
2018-11-03T03:39:37.251Z,10.31
2018-11-03T03:42:06.889Z,10.32
2018-11-03T03:44:35.909Z,10.34
2018-11-03T03:47:04.921Z,10.35
2018-11-03T03:49:33.990Z,10.36
2018-11-03T03:52:03.142Z,10.33
2018-11-03T03:54:32.176Z,10.30
2018-11-03T03:57:01.290Z,10.30
2018-11-03T03:59:30.404Z,10.28
2018-11-03T04:01:59.484Z,10.30
2018-11-03T04:04:28.508Z,10.29
2018-11-03T04:06:57.612Z,10.26
2018-11-03T04:09:26.629Z,10.23
2018-11-03T04:11:55.759Z,10.21
2018-11-03T04:14:24.758Z,10.22
2018-11-03T04:16:54.499Z,10.25
2018-11-03T04:19:23.528Z,10.26
2018-11-03T04:21:52.576Z,10.26
2018-11-03T04:24:21.602Z,10.26
2018-11-03T04:26:50.699Z,10.21
2018-11-03T04:29:19.856Z,10.27
2018-11-03T04:31:48.971Z,10.34
2018-11-03T04:34:18.045Z,10.38
2018-11-03T04:36:47.066Z,10.37
2018-11-03T04:39:16.147Z,10.38
2018-11-03T04:41:45.286Z,10.37
2018-11-03T04:44:15.485Z,10.39
2018-11-03T04:46:44.995Z,10.42
2018-11-03T04:49:14.031Z,10.43
2018-11-03T04:51:43.063Z,10.49
2018-11-03T04:54:12.085Z,10.53
2018-11-03T04:56:41.073Z,10.58
2018-11-03T04:59:10.113Z,10.59
2018-11-03T05:01:39.284Z,10.62
2018-11-03T05:04:08.389Z,10.66
2018-11-03T05:06:37.476Z,10.70
2018-11-03T05:09:08.678Z,10.73
2018-11-03T05:11:37.949Z,10.74
2018-11-03T05:14:07.794Z,10.73
2018-11-03T05:16:36.984Z,10.74
2018-11-03T05:19:06.374Z,10.77
2018-11-03T05:21:35.434Z,10.82
2018-11-03T05:24:04.528Z,10.85
2018-11-03T05:26:33.522Z,10.87
2018-11-03T05:29:02.592Z,10.93
2018-11-03T05:31:31.617Z,10.97
2018-11-03T05:34:00.634Z,10.96
2018-11-03T05:36:29.803Z,10.97
2018-11-03T05:38:58.977Z,10.99
2018-11-03T05:41:27.990Z,11.01
2018-11-03T05:43:56.979Z,11.07
2018-11-03T05:46:26.188Z,11.09
2018-11-03T05:48:55.202Z,11.08
2018-11-03T05:51:24.263Z,11.07
2018-11-03T05:53:53.373Z,11.06
2018-11-03T05:56:22.600Z,11.05
2018-11-03T05:58:51.785Z,11.09
2018-11-03T06:01:20.789Z,11.14
2018-11-03T06:03:49.810Z,11.15
2018-11-03T06:06:18.919Z,11.14
2018-11-03T06:08:47.986Z,11.14
2018-11-03T06:11:16.995Z,11.17
2018-11-03T06:13:45.994Z,11.20
2018-11-03T06:16:16.325Z,11.23
2018-11-03T06:18:45.363Z,11.25
2018-11-03T06:21:14.456Z,11.28
2018-11-03T06:23:43.567Z,11.33
2018-11-03T06:26:12.582Z,11.36
2018-11-03T06:28:41.621Z,11.36
2018-11-03T06:31:10.674Z,11.35
2018-11-03T06:33:39.716Z,11.34
2018-11-03T06:36:08.815Z,11.37
2018-11-03T06:38:37.895Z,11.38
2018-11-03T06:41:07.080Z,11.36
2018-11-03T06:43:36.087Z,11.34
2018-11-03T06:46:05.444Z,11.32
2018-11-03T06:48:34.533Z,11.31
2018-11-03T06:51:03.678Z,11.31
2018-11-03T06:53:32.801Z,11.36
2018-11-03T06:56:02.076Z,11.39
2018-11-03T06:58:31.289Z,11.42
2018-11-03T07:01:00.524Z,11.42
2018-11-03T07:03:29.626Z,11.41
2018-11-03T07:05:58.733Z,11.39
2018-11-03T07:08:27.802Z,11.37
2018-11-03T07:10:56.834Z,11.39
2018-11-03T07:13:25.948Z,11.42
2018-11-03T07:15:54.949Z,11.43
2018-11-03T07:18:24.083Z,11.44
2018-11-03T07:20:53.094Z,11.43
2018-11-03T07:23:22.187Z,11.45
2018-11-03T07:25:51.290Z,11.45
2018-11-03T07:28:20.321Z,11.47
2018-11-03T07:30:49.485Z,11.50
2018-11-03T07:33:18.493Z,11.51
2018-11-03T07:35:47.559Z,11.51
2018-11-03T07:38:16.585Z,11.48
2018-11-03T07:40:45.832Z,11.53
2018-11-03T07:43:14.984Z,11.54
2018-11-03T07:45:44.040Z,11.57
2018-11-03T07:48:13.172Z,11.58
2018-11-03T07:50:42.182Z,11.62
2018-11-03T07:53:11.261Z,11.63
2018-11-03T07:55:40.309Z,11.63
2018-11-03T07:58:09.325Z,11.65
2018-11-03T08:00:38.418Z,11.66
2018-11-03T08:03:07.337Z,11.64
2018-11-03T08:05:38.090Z,11.64
2018-11-03T08:08:07.341Z,11.66
2018-11-03T08:10:36.359Z,11.62
2018-11-03T08:13:05.714Z,11.59
2018-11-03T08:15:34.920Z,11.63
2018-11-03T08:18:03.963Z,11.67
2018-11-03T08:20:33.099Z,11.67
2018-11-03T08:23:02.124Z,11.64
2018-11-03T08:25:31.220Z,11.65
2018-11-03T08:28:00.343Z,11.72
2018-11-03T08:30:29.434Z,11.77
2018-11-03T08:32:58.480Z,11.76
2018-11-03T08:35:27.464Z,11.76
2018-11-03T08:37:56.447Z,11.75
2018-11-03T08:40:25.624Z,11.75
2018-11-03T08:42:54.717Z,11.75
2018-11-03T08:45:23.869Z,11.75
2018-11-03T08:47:53.314Z,11.76
2018-11-03T08:50:22.649Z,11.74
2018-11-03T08:52:51.758Z,11.78
2018-11-03T08:55:20.888Z,11.83
2018-11-03T08:57:49.932Z,11.90
2018-11-03T09:00:19.799Z,11.95
2018-11-03T09:02:48.813Z,11.97
2018-11-03T09:05:19.084Z,12.03
2018-11-03T09:07:48.997Z,12.07
2018-11-03T09:10:18.194Z,12.08
2018-11-03T09:12:47.294Z,12.09
2018-11-03T09:15:17.011Z,12.15
2018-11-03T09:20:19.691Z,12.17
2018-11-03T09:22:48.797Z,12.21
2018-11-03T09:25:17.879Z,12.25
2018-11-03T09:27:47.263Z,12.27
2018-11-03T09:30:19.585Z,12.32
2018-11-03T09:32:48.724Z,12.32
2018-11-03T09:35:19.002Z,12.37
2018-11-03T09:37:48.127Z,12.43
2018-11-03T09:40:18.669Z,12.51
2018-11-03T09:42:48.519Z,12.55
2018-11-03T09:45:17.724Z,12.60
2018-11-03T09:47:46.866Z,12.65
2018-11-03T09:50:16.453Z,12.69
2018-11-03T09:52:46.598Z,12.77
2018-11-03T09:55:18.157Z,12.82
2018-11-03T09:57:47.485Z,12.85
2018-11-03T10:00:18.790Z,12.88
2018-11-03T10:02:48.082Z,12.92
2018-11-03T10:05:17.462Z,12.97
2018-11-03T10:07:46.553Z,12.99
2018-11-03T10:10:17.081Z,13.01
2018-11-03T10:12:46.407Z,13.01
2018-11-03T10:15:17.684Z,13.01
2018-11-03T10:17:47.725Z,13.00
2018-11-03T10:20:16.773Z,13.04
2018-11-03T10:22:45.896Z,13.04
2018-11-03T10:25:16.360Z,13.01
2018-11-03T10:27:45.849Z,12.95
2018-11-03T10:30:15.933Z,12.89
2018-11-03T10:32:45.469Z,12.90
2018-11-03T10:35:15.033Z,12.92
2018-11-03T10:37:44.863Z,12.91
2018-11-03T10:40:16.668Z,12.90
2018-11-03T10:42:46.898Z,12.88
2018-11-03T10:45:17.719Z,12.86
2018-11-03T10:47:47.207Z,12.86
2018-11-03T10:50:18.190Z,12.88
2018-11-03T10:52:51.451Z,12.91
2018-11-03T10:55:21.370Z,12.96
2018-11-03T10:57:51.049Z,13.02
2018-11-03T11:00:26.360Z,13.03
2018-11-03T11:03:00.648Z,13.03
2018-11-03T11:05:35.610Z,13.05
2018-11-03T11:08:10.338Z,13.10
2018-11-03T11:10:49.993Z,13.14
2018-11-03T11:13:22.899Z,13.15
2018-11-03T11:15:54.623Z,13.16
2018-11-03T11:18:24.132Z,13.16
2018-11-03T11:20:53.209Z,13.14
2018-11-03T11:23:22.865Z,13.14
2018-11-03T11:25:52.043Z,13.12
2018-11-03T11:28:21.182Z,13.12
2018-11-03T11:30:50.318Z,13.11
2018-11-03T11:33:19.508Z,13.11
2018-11-03T11:35:48.632Z,13.13
2018-11-03T11:38:17.732Z,13.12
2018-11-03T11:40:46.910Z,13.09
2018-11-03T11:43:16.278Z,13.09
2018-11-03T11:45:45.424Z,13.07
2018-11-03T11:48:15.184Z,13.05
2018-11-03T11:50:44.903Z,13.05
2018-11-03T11:53:14.397Z,13.07
2018-11-03T11:55:47.250Z,13.07
2018-11-03T11:58:16.374Z,13.06
2018-11-03T12:00:45.541Z,13.05
2018-11-03T12:03:14.723Z,13.07
2018-11-03T12:05:44.931Z,13.14
2018-11-03T12:08:15.344Z,13.16
2018-11-03T12:10:44.475Z,13.15
2018-11-03T12:13:13.593Z,13.19
2018-11-03T12:15:42.740Z,13.20
2018-11-03T12:18:11.900Z,13.21
2018-11-03T12:20:41.083Z,13.19
2018-11-03T12:23:10.565Z,13.18
2018-11-03T12:25:40.303Z,13.18
2018-11-03T12:28:17.379Z,13.12
2018-11-03T12:30:46.539Z,13.11
2018-11-03T12:33:15.541Z,13.08
2018-11-03T12:35:44.624Z,13.07
2018-11-03T12:38:14.741Z,13.05
2018-11-03T12:40:44.176Z,13.04
2018-11-03T12:43:13.315Z,13.03
2018-11-03T12:45:42.380Z,13.01
2018-11-03T12:48:11.475Z,12.99
2018-11-03T12:50:40.638Z,13.01
2018-11-03T12:53:11.052Z,13.00
2018-11-03T12:55:40.668Z,12.99
2018-11-03T12:58:13.229Z,13.00
2018-11-03T13:00:42.492Z,13.00
2018-11-03T13:03:12.396Z,12.98
2018-11-03T13:05:41.593Z,12.98
2018-11-03T13:08:11.016Z,12.99
2018-11-03T13:10:40.222Z,13.01
2018-11-03T13:13:09.219Z,12.98
2018-11-03T13:15:38.467Z,13.00
2018-11-03T13:18:07.547Z,13.01
2018-11-03T13:20:36.565Z,12.99
2018-11-03T13:23:05.991Z,12.99
2018-11-03T13:25:35.426Z,12.99
2018-11-03T13:28:04.429Z,12.98
2018-11-03T13:30:34.407Z,12.98
2018-11-03T13:33:03.430Z,12.96
2018-11-03T13:35:33.123Z,12.96
2018-11-03T13:38:02.159Z,12.99
2018-11-03T13:40:31.169Z,12.99
2018-11-03T13:43:00.296Z,13.00
2018-11-03T13:45:29.523Z,13.00
2018-11-03T13:47:58.667Z,13.02
2018-11-03T13:50:27.719Z,13.03
2018-11-03T13:52:57.636Z,13.01
2018-11-03T13:55:39.293Z,13.00
2018-11-03T13:58:08.652Z,12.99
2018-11-03T14:00:37.687Z,12.93
2018-11-03T14:03:06.842Z,12.92
2018-11-03T14:05:35.831Z,12.92
2018-11-03T14:08:04.880Z,12.92
2018-11-03T14:10:34.262Z,12.93
2018-11-03T14:13:03.375Z,12.93
2018-11-03T14:15:32.981Z,12.93
2018-11-03T14:18:02.236Z,12.93
2018-11-03T14:20:31.305Z,12.91
2018-11-03T14:23:00.428Z,12.88
2018-11-03T14:25:29.851Z,12.88
2018-11-03T14:27:58.988Z,12.88
2018-11-03T14:30:28.458Z,12.88
2018-11-03T14:32:57.542Z,12.90
2018-11-03T14:35:27.188Z,12.94
2018-11-03T14:38:04.417Z,12.94
2018-11-03T14:40:51.162Z,12.96
2018-11-03T14:43:21.326Z,13.00
2018-11-03T14:45:50.556Z,12.98
2018-11-03T14:48:19.678Z,12.97
2018-11-03T14:50:48.811Z,12.96
2018-11-03T14:53:18.106Z,12.95
2018-11-03T14:55:50.424Z,12.96
2018-11-03T14:58:24.713Z,12.93
2018-11-03T15:03:35.790Z,12.93
2018-11-03T15:06:04.938Z,12.92
2018-11-03T15:08:34.318Z,12.94
2018-11-03T15:11:05.477Z,12.96
2018-11-03T15:13:39.249Z,12.96
2018-11-03T15:16:10.034Z,12.95
2018-11-03T15:18:39.170Z,12.93
2018-11-03T15:21:08.651Z,12.92
2018-11-03T15:23:37.738Z,12.92
2018-11-03T15:26:08.199Z,12.89
2018-11-03T15:28:37.311Z,12.90
2018-11-03T15:31:06.897Z,12.89
2018-11-03T15:33:35.926Z,12.92
2018-11-03T15:36:04.955Z,12.95
2018-11-03T15:38:34.759Z,12.96
2018-11-03T15:41:03.812Z,12.95
2018-11-03T15:43:32.898Z,12.96
2018-11-03T15:46:01.874Z,12.98
2018-11-03T15:48:30.933Z,12.96
2018-11-03T15:51:00.152Z,12.98
2018-11-03T15:53:29.340Z,13.00
2018-11-03T15:55:58.418Z,13.02
2018-11-03T15:58:28.183Z,13.01
2018-11-03T16:00:58.161Z,13.02
2018-11-03T16:03:27.178Z,13.02
2018-11-03T16:05:56.270Z,13.03
2018-11-03T16:08:25.351Z,13.03
2018-11-03T16:11:14.813Z,13.05
2018-11-03T16:13:44.077Z,13.05
2018-11-03T16:16:13.633Z,13.07
2018-11-03T16:18:42.643Z,13.05
2018-11-03T16:21:11.913Z,13.05
2018-11-03T16:23:41.039Z,13.06
2018-11-03T16:26:10.393Z,13.07
2018-11-03T16:28:40.014Z,13.09
2018-11-03T16:31:09.011Z,13.10
2018-11-03T16:33:38.338Z,13.10
2018-11-03T16:36:07.465Z,13.11
2018-11-03T16:38:46.281Z,13.08
2018-11-03T16:41:15.352Z,13.07
2018-11-03T16:43:44.376Z,13.08
2018-11-03T16:46:13.623Z,13.07
2018-11-03T16:48:42.768Z,13.08
2018-11-03T16:51:12.701Z,13.07
2018-11-03T16:53:41.832Z,13.06
2018-11-03T16:56:11.255Z,13.06
2018-11-03T16:58:40.640Z,13.06
2018-11-03T17:01:09.703Z,13.06
2018-11-03T17:03:38.937Z,13.06
2018-11-03T17:06:08.017Z,13.06
2018-11-03T17:08:37.074Z,13.05
2018-11-03T17:11:06.230Z,13.06
2018-11-03T17:13:35.400Z,13.06
2018-11-03T17:16:04.509Z,13.05
2018-11-03T17:18:34.263Z,13.04
2018-11-03T17:21:03.372Z,13.03
2018-11-03T17:23:32.430Z,13.03
2018-11-03T17:26:01.541Z,13.03
2018-11-03T17:28:30.678Z,13.04
2018-11-03T17:30:59.813Z,13.04
2018-11-03T17:33:28.909Z,13.03
2018-11-03T17:35:57.999Z,13.02
2018-11-03T17:38:27.121Z,13.00
2018-11-03T17:40:56.176Z,12.98
2018-11-03T17:43:25.209Z,12.95
2018-11-03T17:45:54.372Z,12.91
2018-11-03T17:48:23.444Z,12.90
2018-11-03T17:50:52.507Z,12.92
2018-11-03T17:53:21.699Z,12.90
2018-11-03T17:55:50.817Z,12.89
2018-11-03T17:58:19.949Z,12.88
2018-11-03T18:00:49.096Z,12.88
2018-11-03T18:03:19.075Z,12.88
2018-11-03T18:05:56.899Z,12.86
2018-11-03T18:08:25.968Z,12.85
2018-11-03T18:10:54.988Z,12.85
2018-11-03T18:13:23.978Z,12.86
2018-11-03T18:15:53.077Z,12.86
2018-11-03T18:18:22.101Z,12.87
2018-11-03T18:20:51.731Z,12.87
2018-11-03T18:23:20.930Z,12.87
2018-11-03T18:25:49.920Z,12.88
2018-11-03T18:28:18.991Z,12.87
2018-11-03T18:30:48.038Z,12.86
2018-11-03T18:33:17.227Z,12.86
2018-11-03T18:35:46.144Z,12.86
2018-11-03T18:38:15.326Z,12.85
2018-11-03T18:40:44.423Z,12.85
2018-11-03T18:43:13.524Z,12.84
2018-11-03T18:45:42.540Z,12.84
2018-11-03T18:48:12.579Z,12.83
2018-11-03T18:50:41.693Z,12.84
2018-11-03T18:53:10.760Z,12.84
2018-11-03T18:55:39.892Z,12.84
2018-11-03T18:58:08.960Z,12.83
2018-11-03T19:00:38.289Z,12.81
2018-11-03T19:03:07.367Z,12.81
2018-11-03T19:05:37.081Z,12.82
2018-11-03T19:08:06.703Z,12.81
2018-11-03T19:10:35.746Z,12.82
2018-11-03T19:13:04.853Z,12.82
2018-11-03T19:15:34.427Z,12.83
2018-11-03T19:18:03.439Z,12.82
2018-11-03T19:20:32.544Z,12.82
2018-11-03T19:23:01.783Z,12.84
2018-11-03T19:25:31.824Z,12.84
2018-11-03T19:28:00.888Z,12.86
2018-11-03T19:30:30.056Z,12.86
2018-11-03T19:32:59.105Z,12.87
2018-11-03T19:35:28.221Z,12.89
2018-11-03T19:37:57.327Z,12.90
2018-11-03T19:40:26.463Z,12.90
2018-11-03T19:42:56.378Z,12.91
2018-11-03T19:45:25.467Z,12.89
2018-11-03T19:47:54.665Z,12.88
2018-11-03T19:50:23.740Z,12.86
2018-11-03T19:52:52.859Z,12.87
2018-11-03T19:55:21.923Z,12.87
2018-11-03T19:57:51.026Z,12.87
2018-11-03T20:00:20.296Z,12.88
2018-11-03T20:02:50.372Z,12.88
2018-11-03T20:05:19.489Z,12.87
2018-11-03T20:07:48.555Z,12.86
2018-11-03T20:10:18.527Z,12.85
2018-11-03T20:12:47.579Z,12.83
2018-11-03T20:15:16.666Z,12.83
2018-11-03T20:17:45.768Z,12.83
2018-11-03T20:20:16.620Z,12.83
2018-11-03T20:22:45.895Z,12.82
2018-11-03T20:25:15.024Z,12.83
2018-11-03T20:27:44.193Z,12.84
2018-11-03T20:30:14.709Z,12.84
2018-11-03T20:32:44.636Z,12.84
2018-11-03T20:35:13.844Z,12.82
2018-11-03T20:37:42.940Z,12.81
2018-11-03T20:40:13.505Z,12.80
2018-11-03T20:42:42.537Z,12.77
2018-11-03T20:45:12.099Z,12.76
2018-11-03T20:47:42.393Z,12.75
2018-11-03T20:50:13.243Z,12.74
2018-11-03T20:52:42.233Z,12.75
2018-11-03T20:55:12.249Z,12.76
2018-11-03T20:57:41.632Z,12.76
2018-11-03T21:00:22.625Z,12.76
2018-11-03T21:03:04.590Z,12.77
2018-11-03T21:05:33.690Z,12.78
2018-11-03T21:08:02.851Z,12.79
2018-11-03T21:10:31.864Z,12.79
2018-11-03T21:13:01.040Z,12.79
2018-11-03T21:15:30.157Z,12.82
2018-11-03T21:18:00.143Z,12.83
2018-11-03T21:20:29.266Z,12.84
2018-11-03T21:22:58.341Z,12.84
2018-11-03T21:25:28.284Z,12.85
2018-11-03T21:27:57.383Z,12.86
2018-11-03T21:30:26.420Z,12.85
2018-11-03T21:32:55.737Z,12.85
2018-11-03T21:35:24.762Z,12.87
2018-11-03T21:37:53.912Z,12.87
2018-11-03T21:40:23.004Z,12.88
2018-11-03T21:42:52.223Z,12.89
2018-11-03T21:45:21.404Z,12.89
2018-11-03T21:47:50.505Z,12.90
2018-11-03T21:50:19.646Z,12.90
2018-11-03T21:52:48.767Z,12.88
2018-11-03T21:55:18.449Z,12.88
2018-11-03T21:57:47.575Z,12.86
2018-11-03T22:00:16.738Z,12.84
2018-11-03T22:02:45.862Z,12.82
2018-11-03T22:08:13.264Z,12.79
2018-11-03T22:10:42.447Z,12.77
2018-11-03T22:13:11.516Z,12.76
2018-11-03T22:15:40.559Z,12.76
2018-11-03T22:18:09.585Z,12.76
2018-11-03T22:20:38.644Z,12.76
2018-11-03T22:23:07.694Z,12.74
2018-11-03T22:25:36.807Z,12.72
2018-11-03T22:28:06.228Z,12.70
2018-11-03T22:30:35.334Z,12.70
2018-11-03T22:33:04.408Z,12.69
2018-11-03T22:35:33.467Z,12.67
2018-11-03T22:38:02.601Z,12.66
2018-11-03T22:40:31.640Z,12.66
2018-11-03T22:43:00.788Z,12.67
2018-11-03T22:45:29.840Z,12.67
2018-11-03T22:47:58.918Z,12.68
2018-11-03T22:50:28.016Z,12.66
2018-11-03T22:52:57.176Z,12.66
2018-11-03T22:55:27.259Z,12.67
2018-11-03T22:57:56.320Z,12.69
2018-11-03T23:00:25.388Z,12.67
2018-11-03T23:02:54.410Z,12.68
2018-11-03T23:05:23.438Z,12.67
2018-11-03T23:07:52.583Z,12.65
2018-11-03T23:10:21.604Z,12.66
2018-11-03T23:12:54.355Z,12.67
2018-11-03T23:15:26.412Z,12.66
2018-11-03T23:17:58.201Z,12.65
2018-11-03T23:20:48.125Z,12.67
2018-11-03T23:23:35.948Z,12.67
2018-11-03T23:26:25.762Z,12.68
2018-11-03T23:29:13.571Z,12.68
2018-11-03T23:32:01.906Z,12.68
2018-11-03T23:34:31.466Z,12.68
2018-11-03T23:37:17.175Z,12.68
2018-11-03T23:40:08.023Z,12.68
2018-11-03T23:42:56.707Z,12.70
2018-11-03T23:45:39.442Z,12.71
2018-11-03T23:48:28.038Z,12.71
2018-11-03T23:51:16.399Z,12.71
2018-11-03T23:53:56.543Z,12.71
2018-11-03T23:56:33.353Z,12.73
2018-11-03T23:59:19.360Z,12.73
